Time;durP1;ratioP1;P1;durP2;ratioP2;P2;SDS_P1;SDS_P2;PMS_P1;PMS_P2;Temp;Humidity;BMP_temperature;BMP_pressure;BME280_temperature;BME280_humidity;BME280_pressure;Samples;Min_cycle;Max_cycle;Signal;HPM_P1;HPM_P2
2023/12/21 00:03:01;;;;;;;30.75;17.92;;;;;;;;;;6294574;28;20052;-72
2023/12/21 00:06:03;;;;;;;32.22;17.05;;;;;;;;;;6288123;28;20547;-72
2023/12/21 00:09:09;;;;;;;32.10;16.73;;;;;;;;;;6291704;28;20036;-72
2023/12/21 00:12:11;;;;;;;32.90;15.65;;;;;;;;;;6296360;28;20123;-73
2023/12/21 00:15:13;;;;;;;29.98;16.75;;;;;;;;;;6306937;28;20047;-72
2023/12/21 00:18:15;;;;;;;33.15;15.30;;;;;;;;;;6294110;28;20044;-72
2023/12/21 00:21:18;;;;;;;27.42;13.73;;;;;;;;;;6302454;28;20044;-72
2023/12/21 00:24:20;;;;;;;31.05;15.35;;;;;;;;;;6300408;28;20530;-73
2023/12/21 00:27:22;;;;;;;28.33;14.05;;;;;;;;;;6303929;28;20075;-73
2023/12/21 00:30:24;;;;;;;26.52;15.30;;;;;;;;;;6317924;28;20800;-72
2023/12/21 00:33:26;;;;;;;24.92;15.60;;;;;;;;;;6292074;28;20054;-72
2023/12/21 00:36:28;;;;;;;26.55;14.43;;;;;;;;;;6296217;28;20055;-72
2023/12/21 00:39:30;;;;;;;27.48;15.13;;;;;;;;;;6295736;28;20092;-72
2023/12/21 00:42:33;;;;;;;24.02;13.57;;;;;;;;;;6313008;28;20032;-73
2023/12/21 00:45:35;;;;;;;23.83;12.27;;;;;;;;;;6312335;28;20518;-72
2023/12/21 00:48:37;;;;;;;25.73;14.85;;;;;;;;;;6291362;28;20043;-72
2023/12/21 00:51:39;;;;;;;24.42;13.13;;;;;;;;;;6296725;28;20036;-73
2023/12/21 00:54:42;;;;;;;23.35;13.38;;;;;;;;;;6319660;28;20039;-72
2023/12/21 00:57:44;;;;;;;33.45;13.52;;;;;;;;;;6312775;28;20051;-72
2023/12/21 01:00:46;;;;;;;20.95;12.60;;;;;;;;;;6281243;28;20051;-72
2023/12/21 01:03:49;;;;;;;23.77;14.18;;;;;;;;;;6314690;28;20085;-73
2023/12/21 01:06:51;;;;;;;27.10;16.13;;;;;;;;;;6317266;28;20047;-73
2023/12/21 01:09:53;;;;;;;25.13;14.48;;;;;;;;;;6307406;28;20731;-73
2023/12/21 01:12:56;;;;;;;27.35;15.40;;;;;;;;;;6303500;28;20125;-73
2023/12/21 01:15:59;;;;;;;25.95;13.75;;;;;;;;;;6286953;28;20044;-73
2023/12/21 01:19:02;;;;;;;27.95;13.32;;;;;;;;;;6312190;28;20166;-72
2023/12/21 01:22:05;;;;;;;25.58;16.70;;;;;;;;;;6285590;28;20806;-74
2023/12/21 01:25:07;;;;;;;26.27;14.70;;;;;;;;;;6311083;28;20052;-73
2023/12/21 01:28:09;;;;;;;31.55;15.85;;;;;;;;;;6296521;28;20052;-74
2023/12/21 01:31:11;;;;;;;31.95;17.38;;;;;;;;;;6295512;28;20060;-74
2023/12/21 01:34:14;;;;;;;36.65;20.13;;;;;;;;;;6298821;28;20800;-74
2023/12/21 01:37:16;;;;;;;34.75;16.92;;;;;;;;;;6310178;28;20052;-74
2023/12/21 01:40:18;;;;;;;31.00;17.73;;;;;;;;;;6274112;28;20128;-74
2023/12/21 01:43:21;;;;;;;32.63;18.40;;;;;;;;;;6293215;28;20485;-74
2023/12/21 01:46:23;;;;;;;33.75;17.95;;;;;;;;;;6293222;28;20050;-74
2023/12/21 01:49:27;;;;;;;34.67;17.83;;;;;;;;;;6283174;28;20033;-74
2023/12/21 01:52:29;;;;;;;35.22;16.73;;;;;;;;;;6304750;28;20475;-74
2023/12/21 01:55:31;;;;;;;30.40;17.02;;;;;;;;;;6308786;28;20064;-74
2023/12/21 01:58:34;;;;;;;36.17;17.58;;;;;;;;;;6309567;28;20478;-74
2023/12/21 02:01:38;;;;;;;36.80;21.42;;;;;;;;;;6252032;28;20036;-74
2023/12/21 02:04:40;;;;;;;59.20;29.60;;;;;;;;;;6288742;28;20143;-74
2023/12/21 02:07:42;;;;;;;67.30;40.08;;;;;;;;;;6295420;28;20060;-74
2023/12/21 02:10:46;;;;;;;37.58;22.95;;;;;;;;;;6274482;28;20736;-74
2023/12/21 02:13:49;;;;;;;43.47;21.73;;;;;;;;;;6300335;28;20100;-74
2023/12/21 02:17:06;;;;;;;45.75;23.25;;;;;;;;;;6286675;28;20108;-73
2023/12/21 02:20:08;;;;;;;39.55;23.23;;;;;;;;;;6282231;28;20036;-74
2023/12/21 02:23:12;;;;;;;34.67;18.85;;;;;;;;;;6303085;28;20048;-74
2023/12/21 02:26:14;;;;;;;35.72;18.60;;;;;;;;;;6274134;28;20095;-74
2023/12/21 02:29:16;;;;;;;44.70;21.45;;;;;;;;;;6281086;28;20044;-74
2023/12/21 02:32:19;;;;;;;36.03;18.40;;;;;;;;;;6298392;28;20646;-74
2023/12/21 02:35:30;;;;;;;38.90;18.23;;;;;;;;;;6292151;28;20100;-74
2023/12/21 02:38:32;;;;;;;36.75;19.02;;;;;;;;;;6283240;28;20036;-74
2023/12/21 02:41:34;;;;;;;38.40;19.75;;;;;;;;;;6318145;28;20540;-75
2023/12/21 02:44:38;;;;;;;28.83;16.70;;;;;;;;;;6299493;28;20040;-75
2023/12/21 02:47:41;;;;;;;34.38;16.77;;;;;;;;;;6297039;28;20047;-74
2023/12/21 02:50:43;;;;;;;29.63;18.02;;;;;;;;;;6243004;28;20160;-74
2023/12/21 02:53:46;;;;;;;29.77;17.38;;;;;;;;;;6302204;28;20498;-74
2023/12/21 02:56:48;;;;;;;31.00;17.48;;;;;;;;;;6308551;28;20518;-74
2023/12/21 02:59:50;;;;;;;29.50;16.73;;;;;;;;;;6322369;28;20035;-74
2023/12/21 03:02:52;;;;;;;61.92;32.60;;;;;;;;;;6293249;28;20040;-74
2023/12/21 03:05:54;;;;;;;47.40;29.58;;;;;;;;;;6282665;28;20059;-74
2023/12/21 03:08:56;;;;;;;63.10;39.05;;;;;;;;;;6308123;28;20076;-75
2023/12/21 03:11:59;;;;;;;43.10;26.20;;;;;;;;;;6336146;28;20027;-75
2023/12/21 03:15:02;;;;;;;50.95;31.05;;;;;;;;;;6306928;28;20046;-74
2023/12/21 03:18:04;;;;;;;54.85;35.13;;;;;;;;;;6274824;28;20048;-74
2023/12/21 03:21:07;;;;;;;44.35;25.75;;;;;;;;;;6316257;28;20515;-74
2023/12/21 03:24:09;;;;;;;36.67;22.10;;;;;;;;;;6335743;27;20042;-74
2023/12/21 03:27:13;;;;;;;28.73;20.23;;;;;;;;;;6301341;28;20759;-74
2023/12/21 03:30:15;;;;;;;40.25;22.10;;;;;;;;;;6298668;28;20084;-73
2023/12/21 03:33:17;;;;;;;47.10;28.77;;;;;;;;;;6317114;28;20044;-73
2023/12/21 03:36:20;;;;;;;31.88;19.10;;;;;;;;;;6291694;28;20540;-73
2023/12/21 03:39:22;;;;;;;52.38;24.48;;;;;;;;;;6313455;28;20063;-73
2023/12/21 03:42:24;;;;;;;37.67;21.92;;;;;;;;;;6297319;28;20104;-73
2023/12/21 03:45:27;;;;;;;31.85;18.92;;;;;;;;;;6308310;28;20475;-73
2023/12/21 03:48:29;;;;;;;31.02;18.45;;;;;;;;;;6303015;28;20094;-73
2023/12/21 03:51:31;;;;;;;29.67;19.33;;;;;;;;;;6299216;28;20044;-73
2023/12/21 03:54:33;;;;;;;29.20;20.08;;;;;;;;;;6320649;28;20092;-73
2023/12/21 03:57:36;;;;;;;32.80;20.20;;;;;;;;;;6281749;28;20086;-73
2023/12/21 04:00:38;;;;;;;30.30;17.45;;;;;;;;;;6313671;28;20462;-74
2023/12/21 04:03:40;;;;;;;38.15;19.25;;;;;;;;;;6301298;28;20040;-73
2023/12/21 04:06:42;;;;;;;30.88;17.45;;;;;;;;;;6308864;28;20130;-74
2023/12/21 04:09:44;;;;;;;35.20;21.98;;;;;;;;;;6314681;28;20075;-74
2023/12/21 04:12:47;;;;;;;24.17;14.73;;;;;;;;;;6298529;28;20048;-73
2023/12/21 04:15:51;;;;;;;22.60;13.20;;;;;;;;;;6293685;28;20040;-74
2023/12/21 04:18:53;;;;;;;18.80;11.43;;;;;;;;;;6289250;28;20055;-73
2023/12/21 04:21:56;;;;;;;31.88;19.92;;;;;;;;;;6305325;28;20032;-73
2023/12/21 04:24:58;;;;;;;25.35;18.13;;;;;;;;;;6292204;28;20043;-73
2023/12/21 04:28:01;;;;;;;33.38;19.63;;;;;;;;;;6299161;28;20048;-73
2023/12/21 04:31:04;;;;;;;32.30;20.48;;;;;;;;;;6297328;28;20039;-73
2023/12/21 04:34:06;;;;;;;21.13;14.57;;;;;;;;;;6295373;28;20040;-73
2023/12/21 04:37:09;;;;;;;20.13;11.88;;;;;;;;;;6273808;28;20490;-74
2023/12/21 04:40:11;;;;;;;23.48;14.60;;;;;;;;;;6297741;28;20766;-73
2023/12/21 04:43:13;;;;;;;24.90;15.57;;;;;;;;;;6313115;28;20048;-73
2023/12/21 04:46:15;;;;;;;30.02;16.98;;;;;;;;;;6293869;28;20502;-74
2023/12/21 04:49:19;;;;;;;25.38;12.52;;;;;;;;;;6315760;28;20103;-73
2023/12/21 04:52:21;;;;;;;20.48;12.27;;;;;;;;;;6309199;28;20044;-73
2023/12/21 04:55:23;;;;;;;23.30;13.52;;;;;;;;;;6286271;28;20044;-73
2023/12/21 04:58:25;;;;;;;28.33;14.82;;;;;;;;;;6290042;28;20507;-73
2023/12/21 05:01:28;;;;;;;35.25;21.00;;;;;;;;;;6288721;28;20122;-73
2023/12/21 05:04:30;;;;;;;29.73;17.98;;;;;;;;;;6307434;28;20860;-74
2023/12/21 05:07:32;;;;;;;29.20;15.80;;;;;;;;;;6293709;28;20058;-74
2023/12/21 05:10:34;;;;;;;34.83;18.90;;;;;;;;;;6297775;28;20040;-73
2023/12/21 05:13:36;;;;;;;23.77;15.60;;;;;;;;;;6319687;28;20051;-73
2023/12/21 05:16:39;;;;;;;37.50;19.02;;;;;;;;;;6304862;28;20499;-73
2023/12/21 05:19:50;;;;;;;26.95;15.10;;;;;;;;;;6308537;28;20078;-73
2023/12/21 05:22:52;;;;;;;20.20;12.93;;;;;;;;;;6332996;27;20133;-73
2023/12/21 05:25:56;;;;;;;16.90;11.48;;;;;;;;;;6278533;28;20044;-73
2023/12/21 05:28:58;;;;;;;24.83;15.40;;;;;;;;;;6306002;28;20054;-73
2023/12/21 05:32:00;;;;;;;23.85;12.35;;;;;;;;;;6293572;28;20826;-72
2023/12/21 05:35:03;;;;;;;32.70;17.50;;;;;;;;;;6310427;28;20800;-73
2023/12/21 05:38:05;;;;;;;25.00;12.65;;;;;;;;;;6293853;28;20040;-74
2023/12/21 05:41:07;;;;;;;25.13;14.30;;;;;;;;;;6292047;28;20136;-73
2023/12/21 05:44:09;;;;;;;19.65;10.50;;;;;;;;;;6301897;28;20114;-73
2023/12/21 05:47:11;;;;;;;25.33;16.05;;;;;;;;;;6309679;28;20120;-74
2023/12/21 05:50:14;;;;;;;41.60;15.65;;;;;;;;;;6292181;28;20051;-74
2023/12/21 05:53:16;;;;;;;25.75;12.93;;;;;;;;;;6312218;28;20051;-74
2023/12/21 05:56:18;;;;;;;24.35;12.93;;;;;;;;;;6302555;28;20514;-74
2023/12/21 05:59:20;;;;;;;20.73;12.35;;;;;;;;;;6293126;28;20040;-74
2023/12/21 06:02:22;;;;;;;22.23;11.35;;;;;;;;;;6285190;28;20056;-73
2023/12/21 06:05:25;;;;;;;20.17;10.57;;;;;;;;;;6287840;28;20036;-74
2023/12/21 06:08:27;;;;;;;25.15;13.05;;;;;;;;;;6294185;28;20535;-74
2023/12/21 06:11:29;;;;;;;35.65;21.05;;;;;;;;;;6314655;28;20040;-73
2023/12/21 06:14:31;;;;;;;17.25;10.88;;;;;;;;;;6290926;28;20040;-74
2023/12/21 06:17:33;;;;;;;17.23;11.57;;;;;;;;;;6312365;28;20055;-74
2023/12/21 06:20:36;;;;;;;21.38;14.32;;;;;;;;;;6272399;28;20048;-75
2023/12/21 06:23:38;;;;;;;13.80;8.45;;;;;;;;;;6290141;28;20052;-74
2023/12/21 06:26:40;;;;;;;12.20;9.10;;;;;;;;;;6291909;28;20048;-74
2023/12/21 06:29:42;;;;;;;19.00;11.65;;;;;;;;;;6272945;28;20044;-74
2023/12/21 06:32:44;;;;;;;26.08;15.40;;;;;;;;;;6309528;28;20143;-73
2023/12/21 06:35:47;;;;;;;20.17;13.45;;;;;;;;;;6315771;28;20154;-74
2023/12/21 06:38:49;;;;;;;13.73;9.77;;;;;;;;;;6289374;28;20043;-74
2023/12/21 06:41:51;;;;;;;21.30;11.77;;;;;;;;;;6312581;28;20051;-74
2023/12/21 06:44:53;;;;;;;19.27;10.90;;;;;;;;;;6291011;28;20044;-74
2023/12/21 06:47:59;;;;;;;15.23;10.25;;;;;;;;;;6315702;28;20036;-75
2023/12/21 06:51:01;;;;;;;20.98;11.88;;;;;;;;;;6316153;28;20047;-74
2023/12/21 06:54:03;;;;;;;20.05;13.52;;;;;;;;;;6282641;28;20050;-74
2023/12/21 06:57:05;;;;;;;17.65;10.82;;;;;;;;;;6280353;28;20721;-74
2023/12/21 07:00:09;;;;;;;19.98;14.98;;;;;;;;;;6318935;28;20130;-74
2023/12/21 07:03:11;;;;;;;18.67;10.38;;;;;;;;;;6317246;28;20059;-74
2023/12/21 07:06:13;;;;;;;18.90;11.27;;;;;;;;;;6260364;28;20250;-74
2023/12/21 07:09:17;;;;;;;16.95;11.13;;;;;;;;;;6315401;28;20043;-73
2023/12/21 07:12:20;;;;;;;11.88;10.30;;;;;;;;;;6312099;28;20527;-74
2023/12/21 07:15:22;;;;;;;21.35;11.57;;;;;;;;;;6305486;28;20239;-74
2023/12/21 07:18:24;;;;;;;16.92;11.63;;;;;;;;;;6277312;28;20059;-74
2023/12/21 07:21:26;;;;;;;15.27;10.80;;;;;;;;;;6314854;28;20036;-73
2023/12/21 07:24:28;;;;;;;14.57;8.90;;;;;;;;;;6296812;28;20044;-74
2023/12/21 07:27:30;;;;;;;13.13;9.23;;;;;;;;;;6310668;28;20048;-74
2023/12/21 07:30:32;;;;;;;18.85;12.32;;;;;;;;;;6300611;28;20063;-74
2023/12/21 07:33:35;;;;;;;14.52;8.18;;;;;;;;;;6293365;28;20154;-73
2023/12/21 07:36:37;;;;;;;16.88;10.80;;;;;;;;;;6323378;28;20561;-73
2023/12/21 07:39:39;;;;;;;16.42;9.95;;;;;;;;;;6317384;28;20077;-73
2023/12/21 07:42:41;;;;;;;32.63;21.35;;;;;;;;;;6293213;28;20876;-74
2023/12/21 07:45:43;;;;;;;15.68;9.50;;;;;;;;;;6280151;28;20130;-74
2023/12/21 07:48:45;;;;;;;21.42;12.68;;;;;;;;;;6275890;28;20052;-74
2023/12/21 07:51:47;;;;;;;14.13;9.23;;;;;;;;;;6296662;28;20040;-73
2023/12/21 07:54:49;;;;;;;15.88;9.02;;;;;;;;;;6301116;28;20573;-74
2023/12/21 07:57:51;;;;;;;13.95;9.55;;;;;;;;;;6281461;28;20044;-74
2023/12/21 08:00:53;;;;;;;14.02;9.38;;;;;;;;;;6284577;28;20544;-73
2023/12/21 08:03:55;;;;;;;14.27;8.98;;;;;;;;;;6300494;28;20458;-73
2023/12/21 08:06:57;;;;;;;17.42;13.13;;;;;;;;;;6331714;28;20166;-73
2023/12/21 08:10:01;;;;;;;17.40;10.00;;;;;;;;;;6283238;28;20028;-74
2023/12/21 08:13:08;;;;;;;13.25;9.43;;;;;;;;;;6263041;28;20043;-73
2023/12/21 08:16:10;;;;;;;18.33;11.57;;;;;;;;;;6260226;28;20519;-74
2023/12/21 08:19:12;;;;;;;14.40;8.77;;;;;;;;;;6295445;28;20055;-73
2023/12/21 08:22:15;;;;;;;16.23;8.10;;;;;;;;;;6300061;28;20056;-74
2023/12/21 08:25:18;;;;;;;17.02;10.45;;;;;;;;;;6280993;28;20048;-73
2023/12/21 08:28:20;;;;;;;11.50;7.35;;;;;;;;;;6292432;28;20415;-73
2023/12/21 08:31:23;;;;;;;12.90;9.48;;;;;;;;;;6290819;28;20043;-73
2023/12/21 08:34:26;;;;;;;13.07;9.05;;;;;;;;;;6293966;28;20557;-73
2023/12/21 08:37:28;;;;;;;14.82;9.75;;;;;;;;;;6254662;28;20451;-73
2023/12/21 08:40:31;;;;;;;15.40;10.82;;;;;;;;;;6317579;28;20047;-75
2023/12/21 08:43:34;;;;;;;13.20;7.65;;;;;;;;;;6315114;28;20044;-73
2023/12/21 08:46:42;;;;;;;9.73;6.85;;;;;;;;;;6330111;27;20153;-74
2023/12/21 08:49:44;;;;;;;15.00;9.38;;;;;;;;;;6256449;28;20561;-74
2023/12/21 08:52:46;;;;;;;14.10;7.03;;;;;;;;;;6310268;28;20359;-74
2023/12/21 08:55:49;;;;;;;11.73;7.05;;;;;;;;;;6286486;28;20047;-73
2023/12/21 08:58:52;;;;;;;9.32;8.30;;;;;;;;;;6275516;28;20052;-73
2023/12/21 09:01:54;;;;;;;16.30;8.35;;;;;;;;;;6277708;28;20047;-73
2023/12/21 09:04:56;;;;;;;15.65;10.57;;;;;;;;;;6293878;28;20814;-73
2023/12/21 09:07:59;;;;;;;9.85;6.50;;;;;;;;;;6322255;28;20050;-73
2023/12/21 09:11:01;;;;;;;12.85;7.78;;;;;;;;;;6297185;28;20099;-74
2023/12/21 09:14:03;;;;;;;13.82;9.95;;;;;;;;;;6275610;28;20079;-73
2023/12/21 09:17:05;;;;;;;14.57;9.60;;;;;;;;;;6299355;28;20366;-73
2023/12/21 09:20:10;;;;;;;9.73;6.05;;;;;;;;;;6316343;28;20054;-74
2023/12/21 09:23:13;;;;;;;12.60;8.85;;;;;;;;;;6295311;28;20503;-73
2023/12/21 09:26:15;;;;;;;10.82;6.38;;;;;;;;;;6311833;28;20129;-76
2023/12/21 09:29:17;;;;;;;13.52;6.93;;;;;;;;;;6294207;28;20213;-77
2023/12/21 09:32:19;;;;;;;12.85;9.27;;;;;;;;;;6294358;28;20096;-73
2023/12/21 09:35:22;;;;;;;12.57;7.72;;;;;;;;;;6271974;28;20074;-72
2023/12/21 09:38:25;;;;;;;10.27;7.50;;;;;;;;;;6292601;28;20154;-73
2023/12/21 09:41:27;;;;;;;15.90;10.38;;;;;;;;;;6307887;28;20056;-74
2023/12/21 09:44:30;;;;;;;8.30;6.18;;;;;;;;;;6293792;28;20040;-73
2023/12/21 09:47:32;;;;;;;10.68;7.57;;;;;;;;;;6303587;28;20036;-73
2023/12/21 09:50:35;;;;;;;7.97;6.00;;;;;;;;;;6275108;28;20128;-72
2023/12/21 09:53:38;;;;;;;15.55;8.68;;;;;;;;;;6322036;28;20040;-73
2023/12/21 09:56:41;;;;;;;11.45;5.55;;;;;;;;;;6272206;28;20060;-73
2023/12/21 09:59:54;;;;;;;11.73;7.70;;;;;;;;;;6296215;28;20547;-72
2023/12/21 10:02:56;;;;;;;14.20;8.60;;;;;;;;;;6322412;28;20063;-73
2023/12/21 10:05:58;;;;;;;10.65;6.05;;;;;;;;;;6311060;28;20055;-73
2023/12/21 10:09:03;;;;;;;11.25;7.07;;;;;;;;;;6293626;28;20131;-73
2023/12/21 10:12:09;;;;;;;9.85;5.93;;;;;;;;;;6274718;28;20116;-73
2023/12/21 10:15:11;;;;;;;9.43;5.63;;;;;;;;;;6292097;28;20092;-74
2023/12/21 10:18:13;;;;;;;11.30;7.40;;;;;;;;;;6284700;28;20048;-74
2023/12/21 10:21:16;;;;;;;9.63;7.25;;;;;;;;;;6309987;28;20032;-73
2023/12/21 10:24:18;;;;;;;9.55;6.85;;;;;;;;;;6310836;28;20097;-72
2023/12/21 10:27:21;;;;;;;12.07;7.75;;;;;;;;;;6278398;28;20044;-73
2023/12/21 10:30:24;;;;;;;8.93;5.82;;;;;;;;;;6293169;28;20048;-73
2023/12/21 10:33:27;;;;;;;11.40;6.03;;;;;;;;;;6295648;28;20044;-73
2023/12/21 10:36:32;;;;;;;5.90;4.68;;;;;;;;;;6278177;28;20052;-75
2023/12/21 10:39:34;;;;;;;8.27;5.60;;;;;;;;;;6289748;28;20492;-72
2023/12/21 10:42:36;;;;;;;10.55;7.03;;;;;;;;;;6306474;28;20036;-73
2023/12/21 10:45:38;;;;;;;11.23;7.22;;;;;;;;;;6286088;28;20059;-73
2023/12/21 10:48:40;;;;;;;10.07;5.50;;;;;;;;;;6306673;28;20388;-73
2023/12/21 10:51:43;;;;;;;11.55;6.97;;;;;;;;;;6291410;28;20051;-71
2023/12/21 10:54:46;;;;;;;9.07;5.63;;;;;;;;;;6308775;28;20602;-74
2023/12/21 10:57:51;;;;;;;9.60;5.90;;;;;;;;;;6292527;28;20048;-72
2023/12/21 11:00:55;;;;;;;11.90;7.30;;;;;;;;;;6308030;28;20528;-73
2023/12/21 11:04:00;;;;;;;8.65;5.20;;;;;;;;;;6307621;28;20040;-73
2023/12/21 11:07:03;;;;;;;7.55;4.97;;;;;;;;;;6290754;28;20040;-73
2023/12/21 11:10:07;;;;;;;10.93;6.90;;;;;;;;;;6290202;28;20678;-73
2023/12/21 11:13:09;;;;;;;11.10;5.80;;;;;;;;;;6288631;28;20044;-73
2023/12/21 11:16:13;;;;;;;10.68;7.43;;;;;;;;;;6282324;28;20045;-73
2023/12/21 11:19:21;;;;;;;9.13;5.40;;;;;;;;;;6292321;28;20040;-72
2023/12/21 11:22:23;;;;;;;14.10;8.27;;;;;;;;;;6301472;28;20039;-73
2023/12/21 11:25:26;;;;;;;6.93;4.60;;;;;;;;;;6300629;28;20048;-73
2023/12/21 11:28:32;;;;;;;13.00;6.13;;;;;;;;;;6280315;28;20138;-73
2023/12/21 11:31:38;;;;;;;8.43;5.00;;;;;;;;;;6316407;28;20051;-73
2023/12/21 11:34:41;;;;;;;8.65;6.82;;;;;;;;;;6298900;28;20121;-73
2023/12/21 11:37:43;;;;;;;10.57;6.00;;;;;;;;;;6311809;28;20051;-72
2023/12/21 11:40:47;;;;;;;10.32;6.68;;;;;;;;;;6299338;28;20047;-73
2023/12/21 11:44:00;;;;;;;10.25;6.55;;;;;;;;;;6295903;28;20055;-73
2023/12/21 11:47:12;;;;;;;8.68;4.93;;;;;;;;;;6279270;28;20116;-73
2023/12/21 11:50:18;;;;;;;12.77;8.65;;;;;;;;;;6317813;28;20757;-73
2023/12/21 11:53:25;;;;;;;11.25;6.47;;;;;;;;;;6289998;28;20043;-73
2023/12/21 11:56:43;;;;;;;9.57;5.63;;;;;;;;;;6309268;28;20117;-73
2023/12/21 12:00:18;;;;;;;10.68;7.28;;;;;;;;;;6283017;28;20163;-73
2023/12/21 12:03:22;;;;;;;14.35;7.07;;;;;;;;;;6297745;28;20172;-73
2023/12/21 12:06:28;;;;;;;9.07;6.28;;;;;;;;;;6290190;28;20047;-73
2023/12/21 12:09:30;;;;;;;11.82;6.65;;;;;;;;;;6313581;28;20260;-72
2023/12/21 12:12:32;;;;;;;15.73;8.25;;;;;;;;;;6313317;28;20523;-72
2023/12/21 12:15:34;;;;;;;9.75;5.28;;;;;;;;;;6301764;28;20095;-72
2023/12/21 12:18:39;;;;;;;14.88;8.77;;;;;;;;;;6311303;28;20040;-72
2023/12/21 12:21:41;;;;;;;11.23;6.78;;;;;;;;;;6319101;28;20035;-71
2023/12/21 12:24:45;;;;;;;9.98;4.80;;;;;;;;;;6299794;28;20055;-72
2023/12/21 12:27:47;;;;;;;7.45;4.63;;;;;;;;;;6310444;28;20426;-71
2023/12/21 12:30:50;;;;;;;8.52;5.57;;;;;;;;;;6295833;28;20044;-72
2023/12/21 12:33:52;;;;;;;10.77;6.88;;;;;;;;;;6301039;28;20032;-72
2023/12/21 12:36:55;;;;;;;11.68;7.10;;;;;;;;;;6290524;28;20152;-72
2023/12/21 12:39:57;;;;;;;10.60;7.07;;;;;;;;;;6295655;28;20136;-71
2023/12/21 12:43:00;;;;;;;9.98;6.65;;;;;;;;;;6312788;28;20119;-72
2023/12/21 12:46:04;;;;;;;8.15;4.80;;;;;;;;;;6280086;28;20051;-71
2023/12/21 12:49:07;;;;;;;7.38;4.90;;;;;;;;;;6324008;28;20052;-71
2023/12/21 12:52:16;;;;;;;13.40;8.00;;;;;;;;;;6302470;28;20061;-72
2023/12/21 12:55:23;;;;;;;10.32;5.13;;;;;;;;;;6316198;28;20043;-72
2023/12/21 12:58:29;;;;;;;13.07;8.10;;;;;;;;;;6300353;28;20059;-72
2023/12/21 13:01:32;;;;;;;15.77;8.48;;;;;;;;;;6296368;28;20048;-72
2023/12/21 13:04:34;;;;;;;12.63;7.68;;;;;;;;;;6258769;28;20760;-72
2023/12/21 13:07:38;;;;;;;7.65;5.03;;;;;;;;;;6292075;28;20047;-71
2023/12/21 13:10:41;;;;;;;9.68;5.20;;;;;;;;;;6286937;28;20063;-71
2023/12/21 13:13:43;;;;;;;9.85;5.28;;;;;;;;;;6315877;28;20055;-72
2023/12/21 13:16:45;;;;;;;8.00;4.50;;;;;;;;;;6312708;28;20479;-72
2023/12/21 13:19:48;;;;;;;7.35;3.53;;;;;;;;;;6266081;28;20051;-71
2023/12/21 13:22:50;;;;;;;13.18;5.32;;;;;;;;;;6292353;28;20036;-71
2023/12/21 13:25:52;;;;;;;6.50;5.38;;;;;;;;;;6316810;28;20051;-72
2023/12/21 13:28:58;;;;;;;6.68;4.07;;;;;;;;;;6273289;28;20055;-72
2023/12/21 13:32:03;;;;;;;9.57;6.47;;;;;;;;;;6297154;28;20080;-72
2023/12/21 13:35:06;;;;;;;9.18;5.82;;;;;;;;;;6296794;28;20965;-72
2023/12/21 13:38:08;;;;;;;8.32;4.88;;;;;;;;;;6282036;28;20048;-72
2023/12/21 13:41:10;;;;;;;6.63;4.38;;;;;;;;;;6272519;28;20366;-72
2023/12/21 13:44:13;;;;;;;6.32;4.28;;;;;;;;;;6279124;28;20071;-72
2023/12/21 13:47:28;;;;;;;8.48;5.55;;;;;;;;;;6304812;28;20043;-73
2023/12/21 13:50:31;;;;;;;6.43;3.45;;;;;;;;;;6315711;28;20044;-72
2023/12/21 13:53:34;;;;;;;7.88;4.40;;;;;;;;;;6318392;28;20047;-72
2023/12/21 13:56:36;;;;;;;8.05;4.47;;;;;;;;;;6313861;28;20447;-72
2023/12/21 13:59:38;;;;;;;8.48;5.68;;;;;;;;;;6291251;28;20432;-73
2023/12/21 14:02:40;;;;;;;7.00;5.28;;;;;;;;;;6306222;28;20118;-72
2023/12/21 14:05:43;;;;;;;10.50;5.15;;;;;;;;;;6306958;28;20470;-72
2023/12/21 14:08:45;;;;;;;15.70;10.23;;;;;;;;;;6287759;28;20792;-72
2023/12/21 14:11:47;;;;;;;9.18;4.38;;;;;;;;;;6311417;28;20052;-73
2023/12/21 14:14:52;;;;;;;9.38;4.97;;;;;;;;;;6303010;28;20044;-73
2023/12/21 14:17:54;;;;;;;9.45;5.43;;;;;;;;;;6290950;28;20055;-73
2023/12/21 14:20:57;;;;;;;8.98;6.07;;;;;;;;;;6307870;28;20044;-72
2023/12/21 14:23:59;;;;;;;12.25;8.07;;;;;;;;;;6297292;28;20127;-73
2023/12/21 14:27:01;;;;;;;13.20;8.45;;;;;;;;;;6295696;28;20052;-72
2023/12/21 14:30:05;;;;;;;10.50;6.57;;;;;;;;;;6304462;28;20083;-72
2023/12/21 14:33:08;;;;;;;10.52;6.72;;;;;;;;;;6289040;28;20079;-73
2023/12/21 14:36:10;;;;;;;7.22;5.13;;;;;;;;;;6269607;28;20075;-72
2023/12/21 14:39:15;;;;;;;8.70;4.88;;;;;;;;;;6272570;28;20554;-71
2023/12/21 14:42:19;;;;;;;24.23;16.05;;;;;;;;;;6306116;28;20045;-72
2023/12/21 14:45:22;;;;;;;11.55;5.82;;;;;;;;;;6302831;28;20051;-72
2023/12/21 14:48:25;;;;;;;14.02;6.40;;;;;;;;;;6316428;28;20047;-72
2023/12/21 14:51:28;;;;;;;19.42;11.10;;;;;;;;;;6292468;28;20070;-72
2023/12/21 14:54:30;;;;;;;17.95;8.60;;;;;;;;;;6302720;28;20748;-73
2023/12/21 14:57:34;;;;;;;14.27;6.85;;;;;;;;;;6276007;28;20450;-73
2023/12/21 15:00:36;;;;;;;15.85;8.48;;;;;;;;;;6291218;28;20056;-72
2023/12/21 15:03:39;;;;;;;13.55;7.55;;;;;;;;;;6313581;28;20593;-74
2023/12/21 15:06:41;;;;;;;8.52;5.07;;;;;;;;;;6292829;28;20703;-75
2023/12/21 15:09:44;;;;;;;12.00;7.10;;;;;;;;;;6311617;28;20135;-75
2023/12/21 15:12:46;;;;;;;10.63;6.18;;;;;;;;;;6319708;28;20043;-75
2023/12/21 15:15:49;;;;;;;24.10;11.48;;;;;;;;;;6311185;28;20044;-75
2023/12/21 15:18:51;;;;;;;16.73;8.55;;;;;;;;;;6313964;28;20058;-74
2023/12/21 15:21:55;;;;;;;19.40;10.85;;;;;;;;;;6295467;28;20099;-73
2023/12/21 15:24:57;;;;;;;22.15;10.40;;;;;;;;;;6309914;28;20043;-74
2023/12/21 15:27:59;;;;;;;20.63;8.90;;;;;;;;;;6320166;28;20039;-74
2023/12/21 15:31:02;;;;;;;15.23;9.43;;;;;;;;;;6312287;28;20036;-73
2023/12/21 15:34:04;;;;;;;8.88;5.50;;;;;;;;;;6300153;28;20058;-73
2023/12/21 15:37:06;;;;;;;16.92;9.70;;;;;;;;;;6302948;28;20048;-74
2023/12/21 15:40:08;;;;;;;18.02;10.48;;;;;;;;;;6310367;28;20058;-73
2023/12/21 15:43:10;;;;;;;15.05;8.57;;;;;;;;;;6319649;28;20519;-73
2023/12/21 15:46:15;;;;;;;57.05;27.20;;;;;;;;;;6313627;28;20589;-73
2023/12/21 15:49:20;;;;;;;19.88;12.50;;;;;;;;;;6316593;28;20080;-74
2023/12/21 15:52:28;;;;;;;15.98;8.90;;;;;;;;;;6315978;28;20052;-73
2023/12/21 15:55:32;;;;;;;19.98;11.68;;;;;;;;;;6319265;28;20047;-74
2023/12/21 15:58:34;;;;;;;22.17;12.02;;;;;;;;;;6300573;28;20350;-74
2023/12/21 16:01:37;;;;;;;22.40;14.25;;;;;;;;;;6324418;28;20051;-75
2023/12/21 16:04:39;;;;;;;20.33;11.85;;;;;;;;;;6322620;27;20043;-73
2023/12/21 16:07:41;;;;;;;20.50;10.98;;;;;;;;;;6276039;28;20612;-73
2023/12/21 16:10:44;;;;;;;19.90;12.32;;;;;;;;;;6309880;28;20522;-72
2023/12/21 16:13:46;;;;;;;21.30;11.60;;;;;;;;;;6315882;28;20044;-73
2023/12/21 16:16:50;;;;;;;28.02;14.00;;;;;;;;;;6319302;28;20418;-72
2023/12/21 16:19:52;;;;;;;27.10;14.57;;;;;;;;;;6291984;28;20043;-71
2023/12/21 16:22:55;;;;;;;30.30;16.90;;;;;;;;;;6325417;27;20342;-69
2023/12/21 16:25:58;;;;;;;30.42;15.10;;;;;;;;;;6311591;28;20102;-71
2023/12/21 16:29:03;;;;;;;17.90;11.00;;;;;;;;;;6306990;28;20434;-71
2023/12/21 16:32:06;;;;;;;22.45;15.25;;;;;;;;;;6292227;28;20180;-70
2023/12/21 16:35:10;;;;;;;22.75;15.25;;;;;;;;;;6322398;27;20039;-72
2023/12/21 16:38:14;;;;;;;30.88;16.95;;;;;;;;;;6317349;28;20067;-73
2023/12/21 16:41:16;;;;;;;27.58;15.02;;;;;;;;;;6292514;28;20513;-72
2023/12/21 16:44:18;;;;;;;32.45;18.15;;;;;;;;;;6285743;28;20052;-73
2023/12/21 16:47:21;;;;;;;49.63;24.52;;;;;;;;;;6297447;28;20526;-74
2023/12/21 16:50:26;;;;;;;35.53;21.25;;;;;;;;;;6296009;28;20127;-74
2023/12/21 16:53:29;;;;;;;39.67;23.08;;;;;;;;;;6307809;28;20043;-73
2023/12/21 16:56:31;;;;;;;51.13;28.95;;;;;;;;;;6300612;28;20047;-74
2023/12/21 16:59:33;;;;;;;69.70;42.08;;;;;;;;;;6282344;28;20071;-73
2023/12/21 17:02:36;;;;;;;42.17;24.23;;;;;;;;;;6301744;28;20059;-73
2023/12/21 17:05:38;;;;;;;33.40;16.92;;;;;;;;;;6312369;28;20107;-74
2023/12/21 17:08:40;;;;;;;36.75;17.42;;;;;;;;;;6325075;28;20055;-74
2023/12/21 17:11:42;;;;;;;68.75;35.10;;;;;;;;;;6291532;28;20043;-74
2023/12/21 17:14:44;;;;;;;47.33;24.33;;;;;;;;;;6279475;28;20509;-71
2023/12/21 17:17:46;;;;;;;56.97;29.27;;;;;;;;;;6290884;28;20035;-72
2023/12/21 17:20:49;;;;;;;34.88;20.73;;;;;;;;;;6304164;28;20672;-73
2023/12/21 17:23:51;;;;;;;42.30;21.65;;;;;;;;;;6306368;28;20400;-73
2023/12/21 17:26:53;;;;;;;26.75;16.48;;;;;;;;;;6263800;28;20560;-73
2023/12/21 17:29:55;;;;;;;29.42;17.55;;;;;;;;;;6289832;28;20087;-72
2023/12/21 17:32:57;;;;;;;37.47;17.50;;;;;;;;;;6290688;28;20833;-72
2023/12/21 17:36:03;;;;;;;32.95;23.20;;;;;;;;;;6276517;28;20047;-72
2023/12/21 17:39:05;;;;;;;98.00;43.03;;;;;;;;;;6299942;28;20440;-72
2023/12/21 17:42:07;;;;;;;53.78;25.20;;;;;;;;;;6295668;28;20039;-73
2023/12/21 17:45:11;;;;;;;37.17;19.98;;;;;;;;;;6289445;28;20104;-71
2023/12/21 17:48:13;;;;;;;30.85;18.85;;;;;;;;;;6299030;28;20593;-73
2023/12/21 17:51:15;;;;;;;46.88;26.50;;;;;;;;;;6272244;28;20862;-72
2023/12/21 17:54:21;;;;;;;51.45;26.40;;;;;;;;;;6306540;28;20069;-72